Columbus, Georgia
Current Conditions -  °F | °C
As of 10:51 PM on Saturday 22 Nov 2014 (Local Time) from KCSG Reporting Station
Overcast Overcast  
Wind Chill: 12°   Ceiling: 2400
Heat Index: 12°   Visibility: 10mi
Dew Point:   Wind: 9mph
Humidity: 80%   Direction: 100°E
Pressure: 30.17"   Gusts: NA
Location:  32.51°N, 84.93°W
Report Text: KCSG 230351Z AUTO 10008KT 10SM OVC024 12/09 A3017 RMK AO2 SLP216 T01220089
Loading
Personal Weather Stations






























Interactive Weather Map New forecast layout! Learn more

10-Day Weather Forecast

Advertisements
Track Severe Weather on mobile